createdAt,value
2023-03-28T00:01:09.101Z,3.05
2023-03-28T00:03:39.794Z,2.92
2023-03-28T00:06:16.907Z,2.90
2023-03-28T00:08:46.206Z,5.13
2023-03-28T00:11:21.362Z,2.28
2023-03-28T00:13:58.058Z,2.20
2023-03-28T00:16:25.883Z,2.50
2023-03-28T00:18:55.793Z,2.05
2023-03-28T00:21:25.340Z,2.33
2023-03-28T00:23:57.334Z,1.70
2023-03-28T00:26:25.394Z,2.83
2023-03-28T00:28:52.555Z,2.75
2023-03-28T00:31:19.527Z,2.85
2023-03-28T00:33:47.874Z,2.42
2023-03-28T00:36:18.696Z,2.50
2023-03-28T00:38:46.255Z,2.80
2023-03-28T00:41:16.178Z,2.10
2023-03-28T00:43:47.064Z,2.55
2023-03-28T00:46:23.881Z,3.65
2023-03-28T00:51:25.259Z,2.55
2023-03-28T00:53:53.225Z,2.53
2023-03-28T00:56:23.491Z,3.22
2023-03-28T00:58:51.378Z,2.97
2023-03-28T01:01:20.080Z,3.17
2023-03-28T01:03:52.610Z,2.30
2023-03-28T01:06:21.792Z,2.05
2023-03-28T01:08:49.255Z,4.25
2023-03-28T01:11:16.584Z,2.25
2023-03-28T01:13:49.723Z,2.88
2023-03-28T01:16:19.047Z,2.53
2023-03-28T01:18:51.711Z,1.95
2023-03-28T01:22:06.827Z,1.80
2023-03-28T01:24:54.505Z,2.20
2023-03-28T01:27:42.421Z,2.42
2023-03-28T01:33:32.009Z,2.47
2023-03-28T01:36:34.279Z,2.13
2023-03-28T01:39:18.924Z,2.25
2023-03-28T01:42:22.776Z,2.00
2023-03-28T01:45:09.232Z,1.70
2023-03-28T01:47:42.796Z,2.50
2023-03-28T01:50:31.160Z,1.95
2023-03-28T01:53:10.939Z,2.40
2023-03-28T01:55:42.884Z,2.70
2023-03-28T01:58:16.935Z,2.38
2023-03-28T02:00:54.650Z,3.05
2023-03-28T02:03:32.327Z,2.00
2023-03-28T02:06:09.778Z,2.25
2023-03-28T02:08:39.532Z,2.80
2023-03-28T02:11:18.225Z,2.60
2023-03-28T02:13:58.726Z,2.50
2023-03-28T02:16:38.943Z,2.60
2023-03-28T02:19:21.045Z,2.65
2023-03-28T02:22:50.858Z,2.42
2023-03-28T02:25:35.109Z,2.65
2023-03-28T02:28:21.797Z,2.97
2023-03-28T02:31:11.439Z,3.05
2023-03-28T02:33:46.189Z,2.40
2023-03-28T02:36:31.164Z,2.83
2023-03-28T02:39:07.578Z,2.97
2023-03-28T02:41:54.588Z,2.88
2023-03-28T02:44:52.383Z,3.17
2023-03-28T02:47:21.312Z,3.17
2023-03-28T02:50:07.964Z,3.53
2023-03-28T02:52:52.360Z,2.88
2023-03-28T02:55:31.230Z,3.70
2023-03-28T02:58:13.776Z,5.68
2023-03-28T03:00:40.724Z,2.97
2023-03-28T03:03:11.919Z,2.75
2023-03-28T03:05:38.717Z,3.08
2023-03-28T03:08:05.711Z,5.10
2023-03-28T03:10:34.961Z,3.63
2023-03-28T03:13:01.872Z,3.40
2023-03-28T03:15:31.094Z,3.38
2023-03-28T03:17:59.185Z,2.60
2023-03-28T03:20:33.890Z,4.60
2023-03-28T03:23:01.817Z,5.35
2023-03-28T03:25:31.507Z,3.53
2023-03-28T03:28:11.417Z,3.80
2023-03-28T03:30:39.287Z,3.35
2023-03-28T03:33:22.944Z,4.18
2023-03-28T03:35:55.728Z,3.33
2023-03-28T03:38:22.546Z,4.00
2023-03-28T03:40:49.475Z,3.53
2023-03-28T03:43:16.497Z,3.13
2023-03-28T03:45:46.171Z,3.20
2023-03-28T03:48:13.080Z,3.58
2023-03-28T03:50:40.317Z,3.92
2023-03-28T03:53:16.012Z,4.32
2023-03-28T03:56:00.958Z,3.67
2023-03-28T03:58:29.568Z,3.40
2023-03-28T04:00:57.908Z,3.67
2023-03-28T04:03:34.531Z,4.03
2023-03-28T04:06:05.384Z,4.28
2023-03-28T04:08:33.652Z,3.95
2023-03-28T04:11:01.014Z,4.15
2023-03-28T04:13:32.864Z,3.85
2023-03-28T04:16:02.484Z,3.30
2023-03-28T04:18:37.138Z,3.42
2023-03-28T04:21:04.756Z,3.95
2023-03-28T04:23:43.809Z,3.83
2023-03-28T04:26:28.763Z,3.92
2023-03-28T04:29:03.885Z,3.10
2023-03-28T04:31:36.060Z,4.80
2023-03-28T04:37:09.462Z,3.92
2023-03-28T04:39:47.618Z,3.25
2023-03-28T04:42:41.148Z,3.40
2023-03-28T04:45:11.325Z,3.97
2023-03-28T04:47:40.304Z,3.72
2023-03-28T04:50:15.649Z,3.35
2023-03-28T04:52:42.382Z,3.20
2023-03-28T04:55:10.456Z,3.63
2023-03-28T04:57:38.556Z,2.50
2023-03-28T05:00:13.209Z,3.78
2023-03-28T05:03:02.176Z,3.22
2023-03-28T05:05:32.812Z,3.15
2023-03-28T05:08:00.095Z,3.72
2023-03-28T05:10:26.892Z,2.70
2023-03-28T05:12:58.817Z,5.85
2023-03-28T05:15:26.901Z,3.08
2023-03-28T05:18:16.442Z,4.43
2023-03-28T05:20:43.605Z,3.25
2023-03-28T05:23:11.442Z,4.82
2023-03-28T05:25:41.246Z,3.97
2023-03-28T05:28:08.295Z,3.58
2023-03-28T05:30:42.296Z,3.53
2023-03-28T05:33:09.152Z,3.45
2023-03-28T05:35:37.587Z,3.95
2023-03-28T05:38:05.649Z,3.70
2023-03-28T05:40:32.975Z,4.07
2023-03-28T05:43:00.296Z,3.97
2023-03-28T05:45:27.183Z,3.70
2023-03-28T05:48:01.613Z,4.07
2023-03-28T05:50:29.806Z,4.97
2023-03-28T05:53:01.341Z,3.70
2023-03-28T05:55:28.126Z,4.57
2023-03-28T05:57:56.274Z,4.05
2023-03-28T06:00:25.813Z,4.57
2023-03-28T06:02:52.965Z,4.72
2023-03-28T06:05:29.471Z,3.58
2023-03-28T06:07:56.673Z,4.43
2023-03-28T06:10:24.421Z,3.63
2023-03-28T06:13:11.861Z,4.10
2023-03-28T06:15:38.812Z,4.20
2023-03-28T06:18:06.312Z,5.65
2023-03-28T06:20:33.322Z,4.22
2023-03-28T06:23:00.149Z,3.75
2023-03-28T06:25:26.897Z,3.92
2023-03-28T06:27:53.682Z,4.18
2023-03-28T06:30:20.511Z,4.68
2023-03-28T06:32:50.989Z,4.47
2023-03-28T06:35:18.532Z,3.95
2023-03-28T06:37:45.540Z,4.18
2023-03-28T06:40:15.896Z,4.45
2023-03-28T06:42:43.360Z,4.25
2023-03-28T06:45:19.749Z,4.00
2023-03-28T06:47:57.593Z,4.35
2023-03-28T06:50:37.931Z,5.15
2023-03-28T06:53:09.769Z,5.30
2023-03-28T06:55:36.523Z,4.22
2023-03-28T06:58:03.305Z,4.80
2023-03-28T07:00:38.566Z,4.57
2023-03-28T07:03:36.350Z,7.78
2023-03-28T07:06:06.763Z,4.50
2023-03-28T07:08:33.954Z,4.78
2023-03-28T07:11:01.316Z,4.85
2023-03-28T07:13:28.958Z,4.68
2023-03-28T07:16:06.489Z,4.18
2023-03-28T07:18:34.217Z,4.63
2023-03-28T07:21:16.006Z,3.88
2023-03-28T07:23:43.320Z,3.90
2023-03-28T07:26:13.474Z,3.58
2023-03-28T07:28:41.513Z,4.03
2023-03-28T07:31:08.285Z,2.85
2023-03-28T07:33:37.800Z,3.08
2023-03-28T07:36:11.084Z,2.63
2023-03-28T07:38:37.935Z,3.60
2023-03-28T07:41:05.688Z,3.15
2023-03-28T07:43:32.470Z,2.78
2023-03-28T07:46:06.708Z,3.00
2023-03-28T07:48:35.150Z,2.78
2023-03-28T07:51:04.555Z,2.42
2023-03-28T07:53:31.473Z,2.88
2023-03-28T07:55:58.473Z,2.70
2023-03-28T07:58:33.511Z,2.60
2023-03-28T08:01:10.162Z,2.58
2023-03-28T08:03:46.947Z,2.15
2023-03-28T08:06:31.177Z,3.63
2023-03-28T08:09:03.064Z,3.45
2023-03-28T08:11:42.178Z,2.08
2023-03-28T08:14:12.618Z,3.05
2023-03-28T08:16:41.190Z,2.63
2023-03-28T08:19:11.858Z,2.47
2023-03-28T08:21:59.012Z,2.35
2023-03-28T08:24:35.308Z,3.30
2023-03-28T08:27:10.575Z,2.58
2023-03-28T08:29:37.518Z,2.10
2023-03-28T08:32:06.513Z,1.77
2023-03-28T08:34:34.081Z,2.15
2023-03-28T08:37:05.769Z,2.20
2023-03-28T08:39:33.776Z,1.83
2023-03-28T08:42:30.741Z,2.05
2023-03-28T08:45:09.879Z,2.30
2023-03-28T08:47:44.067Z,2.90
2023-03-28T08:50:26.247Z,2.40
2023-03-28T08:52:54.598Z,2.65
2023-03-28T08:55:28.250Z,2.83
2023-03-28T08:57:55.884Z,2.90
2023-03-28T09:00:28.011Z,2.47
2023-03-28T09:02:55.689Z,3.03
2023-03-28T09:05:38.589Z,1.65
2023-03-28T09:08:29.940Z,2.63
2023-03-28T09:11:07.045Z,2.33
2023-03-28T09:13:58.760Z,1.95
2023-03-28T09:16:36.471Z,1.85
2023-03-28T09:19:47.287Z,1.67
2023-03-28T09:23:03.616Z,1.77
2023-03-28T09:25:51.107Z,1.92
2023-03-28T09:28:30.540Z,2.67
2023-03-28T09:30:59.228Z,1.42
2023-03-28T09:33:35.997Z,2.00
2023-03-28T09:36:08.961Z,1.85
2023-03-28T09:38:46.424Z,2.05
2023-03-28T09:41:19.685Z,1.92
2023-03-28T09:44:08.614Z,1.80
2023-03-28T09:46:43.532Z,1.25
2023-03-28T09:49:28.690Z,1.30
2023-03-28T09:52:00.470Z,1.23
2023-03-28T09:54:33.862Z,1.35
2023-03-28T09:57:03.806Z,1.00
2023-03-28T10:00:03.614Z,0.98
2023-03-28T10:02:40.900Z,1.00
2023-03-28T10:05:34.232Z,1.55
2023-03-28T10:08:23.488Z,0.93
2023-03-28T10:11:18.428Z,1.50
2023-03-28T10:13:50.778Z,1.58
2023-03-28T10:16:29.626Z,1.42
2023-03-28T10:19:33.872Z,1.52
2023-03-28T10:22:13.995Z,1.40
2023-03-28T10:24:47.491Z,1.30
2023-03-28T10:27:19.183Z,1.35
2023-03-28T10:29:46.642Z,2.15
2023-03-28T10:32:25.550Z,1.30
2023-03-28T10:35:31.190Z,1.45
2023-03-28T10:38:18.406Z,1.35
2023-03-28T10:41:20.600Z,1.45
2023-03-28T10:44:17.400Z,1.50
2023-03-28T10:46:50.778Z,1.38
2023-03-28T10:49:24.632Z,2.33
2023-03-28T10:52:25.806Z,1.75
2023-03-28T10:57:47.824Z,1.70
2023-03-28T11:00:21.421Z,1.15
2023-03-28T11:03:14.126Z,1.10
2023-03-28T11:06:05.806Z,1.15
2023-03-28T11:08:36.666Z,1.02
2023-03-28T11:11:16.965Z,1.40
2023-03-28T11:13:59.709Z,1.42
2023-03-28T11:16:41.948Z,1.35
2023-03-28T11:19:40.198Z,1.88
2023-03-28T11:22:20.466Z,1.33
2023-03-28T11:25:10.341Z,1.17
2023-03-28T11:28:01.563Z,1.42
2023-03-28T11:30:34.064Z,1.75
2023-03-28T11:33:36.791Z,1.55
2023-03-28T11:36:25.117Z,1.73
2023-03-28T11:38:57.632Z,1.30
2023-03-28T11:41:31.999Z,2.05
2023-03-28T11:44:09.261Z,1.35
2023-03-28T11:46:57.210Z,1.33
2023-03-28T11:49:38.544Z,1.50
2023-03-28T11:52:41.143Z,1.40
2023-03-28T11:55:22.617Z,1.75
2023-03-28T11:58:09.275Z,1.13
2023-03-28T12:00:43.142Z,1.63
2023-03-28T12:03:31.626Z,1.83
2023-03-28T12:06:05.241Z,1.55
2023-03-28T12:08:57.338Z,1.65
2023-03-28T12:11:30.399Z,2.03
2023-03-28T12:16:47.624Z,1.65
2023-03-28T12:19:19.022Z,1.20
2023-03-28T12:21:57.328Z,1.92
2023-03-28T12:24:44.286Z,1.65
2023-03-28T12:27:39.160Z,1.90
2023-03-28T12:30:26.632Z,1.98
2023-03-28T12:33:19.048Z,1.85
2023-03-28T12:36:26.163Z,1.73
2023-03-28T12:39:08.942Z,1.98
2023-03-28T12:41:40.461Z,1.80
2023-03-28T12:44:14.482Z,2.05
2023-03-28T12:46:59.606Z,2.00
2023-03-28T12:49:39.707Z,1.98
2023-03-28T12:52:15.383Z,1.67
2023-03-28T12:55:00.393Z,2.30
2023-03-28T12:57:43.535Z,1.45
2023-03-28T13:00:51.456Z,2.50
2023-03-28T13:03:42.604Z,1.55
2023-03-28T13:06:25.118Z,1.50
2023-03-28T13:09:07.153Z,1.83
2023-03-28T13:11:38.595Z,1.70
2023-03-28T13:14:37.676Z,1.63
2023-03-28T13:17:28.453Z,2.30
2023-03-28T13:19:56.304Z,1.98
2023-03-28T13:22:29.877Z,1.90
2023-03-28T13:25:32.641Z,1.65
2023-03-28T13:28:11.670Z,2.15
2023-03-28T13:30:41.904Z,2.42
2023-03-28T13:33:28.117Z,1.75
2023-03-28T13:35:57.951Z,2.13
2023-03-28T13:38:31.753Z,1.65
2023-03-28T13:41:06.626Z,2.88
2023-03-28T13:43:40.008Z,1.20
2023-03-28T13:46:20.599Z,1.92
2023-03-28T13:48:55.180Z,1.70
2023-03-28T13:51:30.344Z,2.45
2023-03-28T13:53:57.152Z,2.40
2023-03-28T13:56:32.566Z,1.73
2023-03-28T13:59:00.819Z,1.85
2023-03-28T14:01:35.759Z,1.98
2023-03-28T14:04:02.759Z,1.55
2023-03-28T14:06:30.794Z,2.10
2023-03-28T14:09:01.897Z,2.65
2023-03-28T14:11:32.155Z,2.05
2023-03-28T14:14:08.097Z,1.42
2023-03-28T14:16:36.612Z,1.83
2023-03-28T14:19:04.452Z,1.45
2023-03-28T14:21:32.612Z,1.65
2023-03-28T14:24:03.594Z,2.50
2023-03-28T14:26:34.079Z,1.52
2023-03-28T14:31:32.447Z,1.45
2023-03-28T14:36:31.415Z,1.73
2023-03-28T14:39:05.007Z,1.73
2023-03-28T14:41:34.912Z,2.33
2023-03-28T14:44:03.793Z,1.45
2023-03-28T14:46:33.111Z,2.10
2023-03-28T14:49:01.564Z,1.63
2023-03-28T14:51:28.543Z,1.75
2023-03-28T14:53:56.269Z,1.95
2023-03-28T14:56:25.914Z,2.00
2023-03-28T14:58:56.297Z,1.17
2023-03-28T15:01:25.926Z,1.63
2023-03-28T15:03:57.332Z,1.63
2023-03-28T15:06:24.548Z,1.85
2023-03-28T15:08:51.548Z,1.48
2023-03-28T15:11:27.941Z,1.63
2023-03-28T15:14:11.841Z,1.80
2023-03-28T15:16:42.575Z,1.73
2023-03-28T15:19:17.635Z,1.92
2023-03-28T15:22:05.234Z,1.45
2023-03-28T15:24:35.341Z,1.60
2023-03-28T15:27:06.547Z,1.88
2023-03-28T15:29:38.221Z,1.75
2023-03-28T15:32:07.953Z,1.60
2023-03-28T15:34:44.936Z,1.70
2023-03-28T15:37:15.704Z,1.73
2023-03-28T15:39:42.724Z,1.88
2023-03-28T15:42:21.740Z,1.60
2023-03-28T15:44:57.371Z,1.38
2023-03-28T15:47:26.471Z,1.52
2023-03-28T15:50:03.493Z,1.55
2023-03-28T15:52:33.082Z,1.52
2023-03-28T15:55:01.459Z,1.60
2023-03-28T15:57:30.318Z,1.52
2023-03-28T15:59:58.566Z,1.55
2023-03-28T16:02:25.276Z,1.60
2023-03-28T16:05:07.193Z,1.50
2023-03-28T16:07:47.325Z,1.63
2023-03-28T16:10:19.421Z,2.03
2023-03-28T16:13:04.842Z,1.60
2023-03-28T16:15:54.462Z,1.55
2023-03-28T16:18:39.338Z,1.40
2023-03-28T16:21:08.672Z,1.98
2023-03-28T16:23:35.509Z,1.75
2023-03-28T16:26:02.959Z,2.05
2023-03-28T16:28:30.109Z,1.63
2023-03-28T16:30:56.854Z,2.00
2023-03-28T16:33:24.841Z,1.83
2023-03-28T16:35:53.042Z,1.52
2023-03-28T16:38:19.844Z,2.08
2023-03-28T16:40:48.698Z,1.73
2023-03-28T16:43:16.723Z,2.30
2023-03-28T16:45:50.204Z,1.60
2023-03-28T16:48:17.620Z,1.35
2023-03-28T16:50:59.157Z,2.17
2023-03-28T16:53:26.383Z,1.60
2023-03-28T16:55:53.205Z,1.63
2023-03-28T16:58:19.929Z,1.38
2023-03-28T17:00:50.233Z,1.45
2023-03-28T17:03:18.213Z,1.25
2023-03-28T17:05:45.380Z,1.67
2023-03-28T17:08:12.121Z,2.47
2023-03-28T17:10:43.481Z,1.73
2023-03-28T17:13:10.748Z,1.73
2023-03-28T17:15:37.510Z,1.65
2023-03-28T17:18:05.791Z,1.63
2023-03-28T17:20:32.959Z,5.68
2023-03-28T17:22:59.654Z,5.78
2023-03-28T17:25:26.900Z,4.28
2023-03-28T17:27:53.703Z,6.68
2023-03-28T17:30:20.807Z,7.95
2023-03-28T17:32:47.905Z,5.97
2023-03-28T17:35:14.950Z,6.07
2023-03-28T17:37:41.978Z,3.67
2023-03-28T17:40:09.111Z,3.30
2023-03-28T17:42:35.985Z,3.30
2023-03-28T17:45:02.735Z,4.07
2023-03-28T17:47:30.511Z,3.10
2023-03-28T17:50:00.465Z,3.33
2023-03-28T17:52:30.127Z,2.80
2023-03-28T17:54:58.026Z,2.35
2023-03-28T17:57:25.139Z,2.63
2023-03-28T17:59:52.260Z,2.28
2023-03-28T18:02:19.125Z,3.15
2023-03-28T18:04:55.654Z,2.30
2023-03-28T18:07:27.287Z,2.30
2023-03-28T18:10:00.042Z,3.22
2023-03-28T18:12:26.992Z,1.88
2023-03-28T18:14:54.518Z,2.58
2023-03-28T18:17:21.326Z,2.22
2023-03-28T18:19:48.754Z,2.15
2023-03-28T18:22:15.761Z,1.77
2023-03-28T18:24:42.480Z,2.05
2023-03-28T18:27:09.250Z,2.17
2023-03-28T18:29:36.160Z,2.38
2023-03-28T18:32:03.342Z,1.48
2023-03-28T18:34:30.371Z,1.90
2023-03-28T18:36:57.639Z,1.70
2023-03-28T18:39:24.479Z,1.88
2023-03-28T18:41:51.386Z,2.22
2023-03-28T18:44:18.652Z,1.75
2023-03-28T18:46:45.481Z,1.88
2023-03-28T18:49:12.227Z,1.83
2023-03-28T18:51:39.838Z,2.20
2023-03-28T18:54:06.729Z,2.25
2023-03-28T18:56:35.035Z,3.38
2023-03-28T18:59:02.520Z,2.20
2023-03-28T19:01:30.129Z,2.28
2023-03-28T19:03:57.522Z,2.05
2023-03-28T19:06:24.476Z,3.13
2023-03-28T19:08:51.540Z,3.00
2023-03-28T19:11:19.921Z,2.80
2023-03-28T19:13:46.781Z,4.50
2023-03-28T19:16:15.190Z,3.45
2023-03-28T19:18:47.075Z,3.50
2023-03-28T19:21:14.516Z,2.45
2023-03-28T19:23:41.472Z,3.03
2023-03-28T19:26:10.143Z,2.40
2023-03-28T19:28:37.446Z,3.03
2023-03-28T19:31:06.957Z,2.55
2023-03-28T19:33:33.916Z,2.30
2023-03-28T19:36:01.029Z,2.38
2023-03-28T19:38:28.721Z,2.72
2023-03-28T19:40:59.692Z,2.55
2023-03-28T19:43:26.966Z,2.60
2023-03-28T19:45:53.942Z,2.88
2023-03-28T19:48:20.693Z,2.05
2023-03-28T19:50:50.162Z,2.78
2023-03-28T19:53:17.072Z,2.53
2023-03-28T19:55:43.829Z,2.50
2023-03-28T19:58:10.641Z,2.60
2023-03-28T20:00:37.426Z,3.00
2023-03-28T20:03:04.243Z,2.60
2023-03-28T20:05:31.129Z,3.45
2023-03-28T20:07:57.923Z,2.83
2023-03-28T20:10:24.707Z,3.05
2023-03-28T20:12:51.496Z,2.38
2023-03-28T20:15:18.386Z,2.72
2023-03-28T20:17:46.470Z,2.47
2023-03-28T20:20:13.336Z,2.72
2023-03-28T20:22:40.041Z,3.40
2023-03-28T20:25:07.618Z,3.22
2023-03-28T20:27:36.296Z,2.72
2023-03-28T20:30:03.657Z,3.08
2023-03-28T20:32:33.046Z,4.28
2023-03-28T20:35:00.093Z,2.83
2023-03-28T20:37:28.142Z,2.97
2023-03-28T20:39:55.431Z,3.13
2023-03-28T20:42:22.276Z,2.75
2023-03-28T20:44:49.028Z,2.30
2023-03-28T20:47:22.381Z,2.90
2023-03-28T20:49:54.945Z,2.90
2023-03-28T20:52:21.953Z,3.17
2023-03-28T20:54:48.694Z,3.17
2023-03-28T20:57:15.540Z,2.97
2023-03-28T20:59:42.820Z,3.30
2023-03-28T21:02:10.973Z,3.60
2023-03-28T21:04:38.115Z,3.33
2023-03-28T21:07:04.947Z,3.55
2023-03-28T21:09:31.709Z,2.65
2023-03-28T21:11:58.782Z,2.65
2023-03-28T21:14:25.602Z,3.13
2023-03-28T21:16:54.492Z,2.33
2023-03-28T21:19:21.290Z,2.72
2023-03-28T21:21:48.048Z,2.78
2023-03-28T21:24:14.739Z,3.10
2023-03-28T21:26:41.501Z,2.70
2023-03-28T21:29:10.672Z,2.70
2023-03-28T21:31:38.151Z,2.92
2023-03-28T21:34:05.137Z,2.72
2023-03-28T21:36:32.285Z,3.22
2023-03-28T21:38:59.078Z,2.90
2023-03-28T21:41:27.573Z,2.40
2023-03-28T21:43:54.832Z,2.75
2023-03-28T21:46:22.649Z,2.55
2023-03-28T21:48:50.140Z,3.63
2023-03-28T21:51:17.555Z,2.50
2023-03-28T21:53:44.577Z,2.80
2023-03-28T21:56:12.935Z,3.28
2023-03-28T21:58:40.117Z,2.47
2023-03-28T22:01:07.232Z,2.97
2023-03-28T22:03:37.588Z,2.75
2023-03-28T22:06:05.116Z,2.25
2023-03-28T22:08:31.899Z,3.00
2023-03-28T22:11:01.740Z,2.83
2023-03-28T22:13:30.010Z,2.95
2023-03-28T22:16:00.211Z,2.70
2023-03-28T22:18:28.035Z,4.20
2023-03-28T22:20:55.123Z,2.65
2023-03-28T22:23:22.969Z,2.53
2023-03-28T22:25:50.166Z,2.95
2023-03-28T22:28:17.072Z,2.85
2023-03-28T22:30:46.739Z,2.72
2023-03-28T22:33:13.705Z,2.42
2023-03-28T22:35:42.717Z,2.67
2023-03-28T22:38:09.635Z,2.30
2023-03-28T22:40:36.534Z,2.38
2023-03-28T22:43:03.583Z,2.30
2023-03-28T22:45:31.040Z,3.83
2023-03-28T22:48:03.361Z,2.60
2023-03-28T22:50:30.476Z,2.75
2023-03-28T22:52:57.304Z,3.00
2023-03-28T22:55:25.077Z,2.78
2023-03-28T22:57:52.766Z,4.55
2023-03-28T23:00:23.265Z,2.78
2023-03-28T23:02:52.215Z,2.45
2023-03-28T23:05:20.123Z,1.95
2023-03-28T23:07:46.978Z,2.75
2023-03-28T23:10:16.115Z,2.25
2023-03-28T23:12:43.632Z,1.80
2023-03-28T23:15:11.229Z,2.85
2023-03-28T23:17:38.548Z,1.90
2023-03-28T23:20:12.991Z,2.45
2023-03-28T23:22:41.246Z,1.55
2023-03-28T23:25:09.404Z,1.67
2023-03-28T23:27:36.204Z,2.17
2023-03-28T23:30:03.258Z,1.95
2023-03-28T23:32:30.020Z,2.05
2023-03-28T23:34:56.857Z,2.90
2023-03-28T23:37:27.707Z,2.00
2023-03-28T23:39:55.204Z,2.45
2023-03-28T23:42:23.207Z,2.15
2023-03-28T23:44:50.353Z,2.80
2023-03-28T23:47:17.204Z,1.92
2023-03-28T23:49:44.009Z,1.73
2023-03-28T23:52:13.154Z,2.03
2023-03-28T23:54:40.259Z,2.10
2023-03-28T23:57:07.682Z,2.67
2023-03-28T23:59:35.174Z,2.25
